sensor_id;sensor_type;location;lat;lon;timestamp;pressure;altitude;pressure_sealevel;temperature;humidity
62697;BME280;48761;42.680;23.312;2023-04-24T00:00:17;94593.66;;;12.84;56.40
62697;BME280;48761;42.680;23.312;2023-04-24T00:02:44;94576.94;;;12.16;57.56
62697;BME280;48761;42.680;23.312;2023-04-24T00:05:10;94581.03;;;12.09;58.51
62697;BME280;48761;42.680;23.312;2023-04-24T00:07:37;94587.28;;;12.42;58.53
62697;BME280;48761;42.680;23.312;2023-04-24T00:10:03;94571.31;;;12.75;58.85
62697;BME280;48761;42.680;23.312;2023-04-24T00:12:29;94545.31;;;12.23;58.68
62697;BME280;48761;42.680;23.312;2023-04-24T00:14:55;94575.47;;;12.57;58.60
62697;BME280;48761;42.680;23.312;2023-04-24T00:17:21;94570.38;;;12.65;58.67
62697;BME280;48761;42.680;23.312;2023-04-24T00:19:47;94571.59;;;12.28;57.07
62697;BME280;48761;42.680;23.312;2023-04-24T00:22:13;94572.31;;;12.30;57.26
62697;BME280;48761;42.680;23.312;2023-04-24T00:24:40;94551.28;;;11.81;57.00
62697;BME280;48761;42.680;23.312;2023-04-24T00:27:06;94554.22;;;11.77;57.42
62697;BME280;48761;42.680;23.312;2023-04-24T00:29:31;94550.78;;;11.98;57.21
62697;BME280;48761;42.680;23.312;2023-04-24T00:31:57;94563.09;;;12.34;56.11
62697;BME280;48761;42.680;23.312;2023-04-24T00:34:23;94566.91;;;12.53;55.91
62697;BME280;48761;42.680;23.312;2023-04-24T00:36:49;94565.38;;;12.72;55.25
62697;BME280;48761;42.680;23.312;2023-04-24T00:39:15;94576.31;;;12.69;54.89
62697;BME280;48761;42.680;23.312;2023-04-24T00:41:41;94544.81;;;12.62;55.13
62697;BME280;48761;42.680;23.312;2023-04-24T00:44:08;94570.03;;;12.91;54.97
62697;BME280;48761;42.680;23.312;2023-04-24T00:46:33;94565.97;;;12.75;55.49
62697;BME280;48761;42.680;23.312;2023-04-24T00:48:59;94558.47;;;12.36;56.35
62697;BME280;48761;42.680;23.312;2023-04-24T00:51:25;94555.63;;;12.49;56.86
62697;BME280;48761;42.680;23.312;2023-04-24T00:53:51;94560.88;;;12.51;56.13
62697;BME280;48761;42.680;23.312;2023-04-24T00:56:17;94564.66;;;12.70;55.33
62697;BME280;48761;42.680;23.312;2023-04-24T00:58:44;94556.72;;;12.80;54.58
62697;BME280;48761;42.680;23.312;2023-04-24T01:01:10;94564.78;;;12.89;54.73
62697;BME280;48761;42.680;23.312;2023-04-24T01:03:36;94565.72;;;13.00;55.37
62697;BME280;48761;42.680;23.312;2023-04-24T01:06:02;94563.91;;;13.00;55.43
62697;BME280;48761;42.680;23.312;2023-04-24T01:08:29;94560.59;;;13.08;56.06
62697;BME280;48761;42.680;23.312;2023-04-24T01:10:56;94556.75;;;13.01;56.37
62697;BME280;48761;42.680;23.312;2023-04-24T01:13:22;94554.69;;;12.39;57.10
62697;BME280;48761;42.680;23.312;2023-04-24T01:15:48;94550.31;;;11.82;57.65
62697;BME280;48761;42.680;23.312;2023-04-24T01:18:15;94543.09;;;11.49;59.52
62697;BME280;48761;42.680;23.312;2023-04-24T01:20:42;94532.44;;;11.15;60.53
62697;BME280;48761;42.680;23.312;2023-04-24T01:23:08;94536.97;;;10.90;61.23
62697;BME280;48761;42.680;23.312;2023-04-24T01:25:35;94525.00;;;10.84;61.87
62697;BME280;48761;42.680;23.312;2023-04-24T01:28:01;94532.13;;;10.83;62.06
62697;BME280;48761;42.680;23.312;2023-04-24T01:30:27;94539.84;;;10.75;62.01
62697;BME280;48761;42.680;23.312;2023-04-24T01:32:53;94546.16;;;10.85;61.47
62697;BME280;48761;42.680;23.312;2023-04-24T01:35:19;94529.75;;;10.92;61.94
62697;BME280;48761;42.680;23.312;2023-04-24T01:37:45;94528.69;;;10.58;62.46
62697;BME280;48761;42.680;23.312;2023-04-24T01:40:11;94529.63;;;10.57;62.74
62697;BME280;48761;42.680;23.312;2023-04-24T01:42:37;94528.19;;;10.53;62.88
62697;BME280;48761;42.680;23.312;2023-04-24T01:45:04;94527.75;;;10.71;62.72
62697;BME280;48761;42.680;23.312;2023-04-24T01:47:31;94515.78;;;10.65;62.81
62697;BME280;48761;42.680;23.312;2023-04-24T01:49:58;94529.97;;;10.89;62.74
62697;BME280;48761;42.680;23.312;2023-04-24T01:52:24;94527.25;;;11.25;61.91
62697;BME280;48761;42.680;23.312;2023-04-24T01:54:50;94525.91;;;11.42;61.60
62697;BME280;48761;42.680;23.312;2023-04-24T01:57:16;94510.03;;;11.63;61.58
62697;BME280;48761;42.680;23.312;2023-04-24T01:59:42;94528.31;;;11.80;61.29
62697;BME280;48761;42.680;23.312;2023-04-24T02:02:08;94509.72;;;11.45;59.99
62697;BME280;48761;42.680;23.312;2023-04-24T02:04:34;94507.28;;;11.65;60.61
62697;BME280;48761;42.680;23.312;2023-04-24T02:07:00;94527.84;;;11.28;60.38
62697;BME280;48761;42.680;23.312;2023-04-24T02:09:26;94529.53;;;11.18;60.68
62697;BME280;48761;42.680;23.312;2023-04-24T02:11:51;94526.38;;;11.13;60.47
62697;BME280;48761;42.680;23.312;2023-04-24T02:14:17;94520.78;;;10.93;61.09
62697;BME280;48761;42.680;23.312;2023-04-24T02:16:43;94520.31;;;10.99;60.94
62697;BME280;48761;42.680;23.312;2023-04-24T02:19:10;94512.13;;;11.14;60.52
62697;BME280;48761;42.680;23.312;2023-04-24T02:21:35;94523.25;;;11.30;60.51
62697;BME280;48761;42.680;23.312;2023-04-24T02:24:01;94511.16;;;11.26;60.75
62697;BME280;48761;42.680;23.312;2023-04-24T02:26:27;94523.72;;;11.59;59.70
62697;BME280;48761;42.680;23.312;2023-04-24T02:28:53;94518.38;;;11.82;59.88
62697;BME280;48761;42.680;23.312;2023-04-24T02:31:19;94490.69;;;11.73;59.59
62697;BME280;48761;42.680;23.312;2023-04-24T02:33:45;94511.09;;;11.95;59.46
62697;BME280;48761;42.680;23.312;2023-04-24T02:36:11;94509.38;;;12.06;59.23
62697;BME280;48761;42.680;23.312;2023-04-24T02:38:37;94491.00;;;11.91;59.02
62697;BME280;48761;42.680;23.312;2023-04-24T02:41:03;94482.19;;;11.91;59.16
62697;BME280;48761;42.680;23.312;2023-04-24T02:43:29;94489.78;;;11.95;58.95
62697;BME280;48761;42.680;23.312;2023-04-24T02:45:55;94484.19;;;11.98;59.11
62697;BME280;48761;42.680;23.312;2023-04-24T02:48:21;94481.75;;;12.07;59.49
62697;BME280;48761;42.680;23.312;2023-04-24T02:50:47;94492.41;;;12.18;59.63
62697;BME280;48761;42.680;23.312;2023-04-24T02:53:13;94476.69;;;12.15;59.78
62697;BME280;48761;42.680;23.312;2023-04-24T02:55:39;94492.88;;;12.12;59.20
62697;BME280;48761;42.680;23.312;2023-04-24T02:58:05;94493.16;;;11.97;61.08
62697;BME280;48761;42.680;23.312;2023-04-24T03:00:31;94490.78;;;11.83;60.82
62697;BME280;48761;42.680;23.312;2023-04-24T03:02:57;94493.88;;;11.99;60.18
62697;BME280;48761;42.680;23.312;2023-04-24T03:05:22;94498.34;;;12.10;59.79
62697;BME280;48761;42.680;23.312;2023-04-24T03:07:48;94469.06;;;11.99;59.80
62697;BME280;48761;42.680;23.312;2023-04-24T03:10:14;94506.06;;;12.25;59.84
62697;BME280;48761;42.680;23.312;2023-04-24T03:12:40;94506.06;;;12.25;59.97
62697;BME280;48761;42.680;23.312;2023-04-24T03:15:07;94503.25;;;12.27;60.02
62697;BME280;48761;42.680;23.312;2023-04-24T03:17:33;94502.31;;;12.16;59.98
62697;BME280;48761;42.680;23.312;2023-04-24T03:19:58;94506.56;;;12.19;60.15
62697;BME280;48761;42.680;23.312;2023-04-24T03:22:24;94501.69;;;12.24;60.21
62697;BME280;48761;42.680;23.312;2023-04-24T03:24:50;94505.06;;;12.26;60.21
62697;BME280;48761;42.680;23.312;2023-04-24T03:27:16;94507.16;;;12.23;60.26
62697;BME280;48761;42.680;23.312;2023-04-24T03:29:42;94504.38;;;12.24;60.20
62697;BME280;48761;42.680;23.312;2023-04-24T03:32:08;94487.44;;;12.14;60.38
62697;BME280;48761;42.680;23.312;2023-04-24T03:34:34;94512.25;;;12.26;60.71
62697;BME280;48761;42.680;23.312;2023-04-24T03:37:00;94515.88;;;12.25;60.68
62697;BME280;48761;42.680;23.312;2023-04-24T03:39:26;94469.78;;;12.01;60.65
62697;BME280;48761;42.680;23.312;2023-04-24T03:41:52;94504.75;;;12.19;60.88
62697;BME280;48761;42.680;23.312;2023-04-24T03:44:17;94485.38;;;12.17;60.61
62697;BME280;48761;42.680;23.312;2023-04-24T03:46:43;94496.84;;;12.29;60.62
62697;BME280;48761;42.680;23.312;2023-04-24T03:49:09;94515.00;;;12.36;60.57
62697;BME280;48761;42.680;23.312;2023-04-24T03:51:35;94500.34;;;12.30;60.65
62697;BME280;48761;42.680;23.312;2023-04-24T03:54:01;94506.06;;;12.25;60.82
62697;BME280;48761;42.680;23.312;2023-04-24T03:56:27;94489.47;;;12.21;60.63
62697;BME280;48761;42.680;23.312;2023-04-24T03:58:53;94499.88;;;12.25;60.75
62697;BME280;48761;42.680;23.312;2023-04-24T04:01:19;94497.59;;;12.20;61.12
62697;BME280;48761;42.680;23.312;2023-04-24T04:03:45;94491.66;;;12.28;60.86
62697;BME280;48761;42.680;23.312;2023-04-24T04:06:10;94463.53;;;12.24;60.71
62697;BME280;48761;42.680;23.312;2023-04-24T04:08:36;94506.06;;;12.58;60.70
62697;BME280;48761;42.680;23.312;2023-04-24T04:11:03;94487.56;;;12.66;60.36
62697;BME280;48761;42.680;23.312;2023-04-24T04:13:29;94511.00;;;12.84;60.07
62697;BME280;48761;42.680;23.312;2023-04-24T04:15:55;94501.22;;;12.95;59.57
62697;BME280;48761;42.680;23.312;2023-04-24T04:18:35;94503.03;;;13.16;58.36
62697;BME280;48761;42.680;23.312;2023-04-24T04:21:01;94488.34;;;13.00;58.76
62697;BME280;48761;42.680;23.312;2023-04-24T04:23:27;94509.34;;;13.15;58.77
62697;BME280;48761;42.680;23.312;2023-04-24T04:25:53;94506.16;;;12.99;58.28
62697;BME280;48761;42.680;23.312;2023-04-24T04:28:19;94517.13;;;12.75;57.69
62697;BME280;48761;42.680;23.312;2023-04-24T04:30:45;94508.66;;;12.48;57.73
62697;BME280;48761;42.680;23.312;2023-04-24T04:33:11;94524.16;;;11.98;58.53
62697;BME280;48761;42.680;23.312;2023-04-24T04:35:37;94527.34;;;11.69;59.08
62697;BME280;48761;42.680;23.312;2023-04-24T04:38:03;94532.69;;;11.46;58.84
62697;BME280;48761;42.680;23.312;2023-04-24T04:40:29;94519.00;;;11.16;58.69
62697;BME280;48761;42.680;23.312;2023-04-24T04:42:54;94526.81;;;10.83;59.28
62697;BME280;48761;42.680;23.312;2023-04-24T04:45:20;94538.38;;;10.71;59.12
62697;BME280;48761;42.680;23.312;2023-04-24T04:47:47;94500.88;;;10.02;60.27
62697;BME280;48761;42.680;23.312;2023-04-24T04:50:13;94533.44;;;10.41;60.33
62697;BME280;48761;42.680;23.312;2023-04-24T04:52:39;94535.59;;;10.72;59.55
62697;BME280;48761;42.680;23.312;2023-04-24T04:55:06;94506.50;;;10.71;58.62
62697;BME280;48761;42.680;23.312;2023-04-24T04:57:32;94535.53;;;10.85;59.14
62697;BME280;48761;42.680;23.312;2023-04-24T04:59:57;94548.16;;;11.29;58.14
62697;BME280;48761;42.680;23.312;2023-04-24T05:02:23;94536.91;;;11.26;57.83
62697;BME280;48761;42.680;23.312;2023-04-24T05:04:49;94547.56;;;11.26;57.96
62697;BME280;48761;42.680;23.312;2023-04-24T05:07:17;94548.16;;;11.41;57.65
62697;BME280;48761;42.680;23.312;2023-04-24T05:09:43;94550.56;;;11.21;58.14
62697;BME280;48761;42.680;23.312;2023-04-24T05:12:09;94506.31;;;11.20;57.41
62697;BME280;48761;42.680;23.312;2023-04-24T05:14:35;94547.66;;;11.13;58.49
62697;BME280;48761;42.680;23.312;2023-04-24T05:17:02;94539.44;;;11.16;58.14
62697;BME280;48761;42.680;23.312;2023-04-24T05:19:28;94533.41;;;11.14;58.01
62697;BME280;48761;42.680;23.312;2023-04-24T05:21:54;94504.63;;;11.19;57.64
62697;BME280;48761;42.680;23.312;2023-04-24T05:24:20;94546.47;;;11.74;57.15
62697;BME280;48761;42.680;23.312;2023-04-24T05:26:46;94549.47;;;11.81;56.80
62697;BME280;48761;42.680;23.312;2023-04-24T05:29:12;94528.88;;;11.95;56.04
62697;BME280;48761;42.680;23.312;2023-04-24T05:31:38;94539.16;;;11.99;55.90
62697;BME280;48761;42.680;23.312;2023-04-24T05:34:04;94543.28;;;11.92;56.30
62697;BME280;48761;42.680;23.312;2023-04-24T05:36:30;94546.16;;;12.12;55.90
62697;BME280;48761;42.680;23.312;2023-04-24T05:38:56;94536.22;;;12.26;55.46
62697;BME280;48761;42.680;23.312;2023-04-24T05:41:22;94524.94;;;11.77;56.32
62697;BME280;48761;42.680;23.312;2023-04-24T05:43:47;94517.31;;;11.38;57.35
62697;BME280;48761;42.680;23.312;2023-04-24T05:46:13;94555.91;;;11.90;56.63
62697;BME280;48761;42.680;23.312;2023-04-24T05:48:39;94542.47;;;12.36;55.43
62697;BME280;48761;42.680;23.312;2023-04-24T05:51:05;94544.88;;;12.51;55.28
62697;BME280;48761;42.680;23.312;2023-04-24T05:53:31;94548.00;;;12.77;54.95
62697;BME280;48761;42.680;23.312;2023-04-24T05:55:57;94540.78;;;13.11;53.89
62697;BME280;48761;42.680;23.312;2023-04-24T05:58:23;94507.47;;;13.05;53.70
62697;BME280;48761;42.680;23.312;2023-04-24T06:00:49;94541.50;;;12.70;54.54
62697;BME280;48761;42.680;23.312;2023-04-24T06:03:15;94540.19;;;12.64;55.09
62697;BME280;48761;42.680;23.312;2023-04-24T06:05:41;94547.75;;;12.81;54.74
62697;BME280;48761;42.680;23.312;2023-04-24T06:08:07;94544.03;;;13.15;54.14
62697;BME280;48761;42.680;23.312;2023-04-24T06:10:33;94532.59;;;13.55;53.02
62697;BME280;48761;42.680;23.312;2023-04-24T06:12:59;94525.66;;;14.45;52.28
62697;BME280;48761;42.680;23.312;2023-04-24T06:15:28;94541.44;;;14.68;49.89
62697;BME280;48761;42.680;23.312;2023-04-24T06:17:54;94532.25;;;14.31;51.88
62697;BME280;48761;42.680;23.312;2023-04-24T06:20:20;94516.56;;;15.74;49.46
62697;BME280;48761;42.680;23.312;2023-04-24T06:22:46;94531.53;;;15.95;47.58
62697;BME280;48761;42.680;23.312;2023-04-24T06:25:12;94545.38;;;15.14;49.39
62697;BME280;48761;42.680;23.312;2023-04-24T06:27:38;94550.56;;;15.26;48.23
62697;BME280;48761;42.680;23.312;2023-04-24T06:30:04;94535.94;;;14.80;49.56
62697;BME280;48761;42.680;23.312;2023-04-24T06:32:30;94543.53;;;14.35;50.62
62697;BME280;48761;42.680;23.312;2023-04-24T06:34:56;94525.31;;;14.09;51.19
62697;BME280;48761;42.680;23.312;2023-04-24T06:37:22;94535.09;;;13.78;51.91
62697;BME280;48761;42.680;23.312;2023-04-24T06:39:48;94544.22;;;14.47;51.21
62697;BME280;48761;42.680;23.312;2023-04-24T06:42:14;94540.59;;;14.98;50.06
62697;BME280;48761;42.680;23.312;2023-04-24T06:44:40;94534.41;;;14.97;49.78
62697;BME280;48761;42.680;23.312;2023-04-24T06:47:07;94542.56;;;14.96;49.32
62697;BME280;48761;42.680;23.312;2023-04-24T06:49:34;94549.72;;;14.45;50.28
62697;BME280;48761;42.680;23.312;2023-04-24T06:52:00;94531.94;;;14.05;51.43
62697;BME280;48761;42.680;23.312;2023-04-24T06:54:26;94537.38;;;13.93;52.04
62697;BME280;48761;42.680;23.312;2023-04-24T06:56:52;94543.78;;;14.22;51.38
62697;BME280;48761;42.680;23.312;2023-04-24T06:59:19;94538.88;;;14.27;51.47
62697;BME280;48761;42.680;23.312;2023-04-24T07:01:44;94535.66;;;14.43;51.15
62697;BME280;48761;42.680;23.312;2023-04-24T07:04:10;94536.22;;;14.57;50.82
62697;BME280;48761;42.680;23.312;2023-04-24T07:06:36;94521.69;;;15.09;50.03
62697;BME280;48761;42.680;23.312;2023-04-24T07:09:02;94538.38;;;16.36;48.18
62697;BME280;48761;42.680;23.312;2023-04-24T07:11:28;94528.59;;;16.45;47.22
62697;BME280;48761;42.680;23.312;2023-04-24T07:13:55;94520.75;;;16.15;47.05
62697;BME280;48761;42.680;23.312;2023-04-24T07:16:21;94533.63;;;16.01;47.07
62697;BME280;48761;42.680;23.312;2023-04-24T07:18:47;94531.47;;;17.25;45.27
62697;BME280;48761;42.680;23.312;2023-04-24T07:21:13;94521.13;;;17.65;44.43
62697;BME280;48761;42.680;23.312;2023-04-24T07:23:39;94522.66;;;18.63;43.17
62697;BME280;48761;42.680;23.312;2023-04-24T07:26:05;94498.50;;;17.41;43.93
62697;BME280;48761;42.680;23.312;2023-04-24T07:28:31;94518.72;;;17.27;43.96
62697;BME280;48761;42.680;23.312;2023-04-24T07:30:57;94511.16;;;17.49;44.77
62697;BME280;48761;42.680;23.312;2023-04-24T07:33:23;94501.41;;;18.26;42.70
62697;BME280;48761;42.680;23.312;2023-04-24T07:35:49;94511.47;;;17.01;44.78
62697;BME280;48761;42.680;23.312;2023-04-24T07:38:15;94518.47;;;16.94;44.79
62697;BME280;48761;42.680;23.312;2023-04-24T07:40:41;94483.28;;;16.78;45.20
62697;BME280;48761;42.680;23.312;2023-04-24T07:43:10;94515.22;;;17.27;44.48
62697;BME280;48761;42.680;23.312;2023-04-24T07:45:36;94491.16;;;18.30;42.96
62697;BME280;48761;42.680;23.312;2023-04-24T07:48:02;94496.06;;;18.93;41.63
62697;BME280;48761;42.680;23.312;2023-04-24T07:50:28;94492.72;;;17.63;42.73
62697;BME280;48761;42.680;23.312;2023-04-24T07:52:54;94492.25;;;18.11;42.38
62697;BME280;48761;42.680;23.312;2023-04-24T07:55:19;94494.41;;;19.01;40.76
62697;BME280;48761;42.680;23.312;2023-04-24T07:57:45;94495.09;;;19.20;40.91
62697;BME280;48761;42.680;23.312;2023-04-24T08:00:12;94493.00;;;19.64;39.50
62697;BME280;48761;42.680;23.312;2023-04-24T08:02:38;94469.78;;;20.35;38.75
62697;BME280;48761;42.680;23.312;2023-04-24T08:05:04;94487.34;;;19.33;39.84
62697;BME280;48761;42.680;23.312;2023-04-24T08:07:30;94488.00;;;19.02;41.33
62697;BME280;48761;42.680;23.312;2023-04-24T08:09:56;94476.56;;;18.66;41.58
62697;BME280;48761;42.680;23.312;2023-04-24T08:12:22;94473.84;;;19.16;40.79
62697;BME280;48761;42.680;23.312;2023-04-24T08:14:48;94480.09;;;19.00;41.65
62697;BME280;48761;42.680;23.312;2023-04-24T08:17:16;94471.69;;;18.95;40.87
62697;BME280;48761;42.680;23.312;2023-04-24T08:19:42;94460.06;;;18.36;41.84
62697;BME280;48761;42.680;23.312;2023-04-24T08:22:08;94475.22;;;18.45;42.36
62697;BME280;48761;42.680;23.312;2023-04-24T08:24:35;94475.88;;;19.31;41.04
62697;BME280;48761;42.680;23.312;2023-04-24T08:27:01;94453.31;;;20.21;40.18
62697;BME280;48761;42.680;23.312;2023-04-24T08:29:27;94474.03;;;19.07;41.64
62697;BME280;48761;42.680;23.312;2023-04-24T08:31:59;94470.19;;;18.76;42.14
62697;BME280;48761;42.680;23.312;2023-04-24T08:34:25;94472.53;;;18.79;42.03
62697;BME280;48761;42.680;23.312;2023-04-24T08:36:51;94461.75;;;18.54;42.00
62697;BME280;48761;42.680;23.312;2023-04-24T08:39:17;94449.31;;;18.95;41.29
62697;BME280;48761;42.680;23.312;2023-04-24T08:41:44;94464.06;;;19.41;40.55
62697;BME280;48761;42.680;23.312;2023-04-24T08:44:10;94456.97;;;19.48;41.33
62697;BME280;48761;42.680;23.312;2023-04-24T08:46:37;94446.97;;;18.75;41.77
62697;BME280;48761;42.680;23.312;2023-04-24T08:49:03;94448.63;;;19.18;41.88
62697;BME280;48761;42.680;23.312;2023-04-24T08:51:29;94439.38;;;18.78;41.74
62697;BME280;48761;42.680;23.312;2023-04-24T08:53:57;94451.97;;;19.28;40.78
62697;BME280;48761;42.680;23.312;2023-04-24T08:56:23;94425.50;;;19.40;41.05
62697;BME280;48761;42.680;23.312;2023-04-24T08:58:51;94412.53;;;20.63;39.43
62697;BME280;48761;42.680;23.312;2023-04-24T09:01:19;94416.63;;;19.31;40.12
62697;BME280;48761;42.680;23.312;2023-04-24T09:03:48;94432.63;;;20.05;39.52
62697;BME280;48761;42.680;23.312;2023-04-24T09:06:16;94400.28;;;19.73;39.78
62697;BME280;48761;42.680;23.312;2023-04-24T09:08:45;94423.00;;;19.30;40.79
62697;BME280;48761;42.680;23.312;2023-04-24T09:11:11;94399.88;;;19.44;40.70
62697;BME280;48761;42.680;23.312;2023-04-24T09:13:37;94412.69;;;19.42;40.31
62697;BME280;48761;42.680;23.312;2023-04-24T09:16:04;94420.63;;;19.44;40.39
62697;BME280;48761;42.680;23.312;2023-04-24T09:18:30;94414.66;;;18.83;41.74
62697;BME280;48761;42.680;23.312;2023-04-24T09:21:04;94410.41;;;18.13;42.83
62697;BME280;48761;42.680;23.312;2023-04-24T09:23:32;94402.09;;;17.81;43.51
62697;BME280;48761;42.680;23.312;2023-04-24T09:25:59;94400.81;;;18.11;43.09
62697;BME280;48761;42.680;23.312;2023-04-24T09:28:36;94396.84;;;18.65;42.02
62697;BME280;48761;42.680;23.312;2023-04-24T09:31:13;94382.03;;;18.78;41.49
62697;BME280;48761;42.680;23.312;2023-04-24T09:33:40;94391.56;;;19.63;40.56
62697;BME280;48761;42.680;23.312;2023-04-24T09:36:06;94358.53;;;19.92;40.09
62697;BME280;48761;42.680;23.312;2023-04-24T09:38:32;94380.78;;;19.94;39.91
62697;BME280;48761;42.680;23.312;2023-04-24T09:41:03;94378.09;;;19.54;39.96
62697;BME280;48761;42.680;23.312;2023-04-24T09:43:30;94385.06;;;18.41;42.12
62697;BME280;48761;42.680;23.312;2023-04-24T09:45:58;94388.69;;;19.07;41.10
62697;BME280;48761;42.680;23.312;2023-04-24T09:48:34;94381.63;;;19.63;40.33
62697;BME280;48761;42.680;23.312;2023-04-24T09:51:02;94382.81;;;20.24;38.28
62697;BME280;48761;42.680;23.312;2023-04-24T09:53:29;94385.06;;;19.48;39.76
62697;BME280;48761;42.680;23.312;2023-04-24T09:55:56;94381.31;;;19.90;38.77
62697;BME280;48761;42.680;23.312;2023-04-24T09:58:25;94377.13;;;20.11;38.43
62697;BME280;48761;42.680;23.312;2023-04-24T10:00:55;94382.06;;;20.07;38.81
62697;BME280;48761;42.680;23.312;2023-04-24T10:03:25;94349.25;;;20.27;38.09
62697;BME280;48761;42.680;23.312;2023-04-24T10:05:51;94363.25;;;21.00;37.63
62697;BME280;48761;42.680;23.312;2023-04-24T10:08:18;94360.97;;;21.79;36.64
62697;BME280;48761;42.680;23.312;2023-04-24T10:10:45;94355.06;;;21.69;35.86
62697;BME280;48761;42.680;23.312;2023-04-24T10:13:13;94338.97;;;21.82;35.95
62697;BME280;48761;42.680;23.312;2023-04-24T10:15:40;94336.84;;;21.93;36.17
62697;BME280;48761;42.680;23.312;2023-04-24T10:18:08;94340.06;;;21.66;36.13
62697;BME280;48761;42.680;23.312;2023-04-24T10:20:36;94327.25;;;21.08;36.49
62697;BME280;48761;42.680;23.312;2023-04-24T10:23:03;94331.16;;;21.20;37.20
62697;BME280;48761;42.680;23.312;2023-04-24T10:25:30;94333.63;;;21.52;36.38
62697;BME280;48761;42.680;23.312;2023-04-24T10:27:58;94326.88;;;21.78;35.68
62697;BME280;48761;42.680;23.312;2023-04-24T10:30:24;94327.44;;;21.73;36.02
62697;BME280;48761;42.680;23.312;2023-04-24T10:32:51;94322.97;;;21.13;35.72
62697;BME280;48761;42.680;23.312;2023-04-24T10:35:18;94321.63;;;20.94;35.73
62697;BME280;48761;42.680;23.312;2023-04-24T10:38:06;94292.91;;;20.47;35.61
62697;BME280;48761;42.680;23.312;2023-04-24T10:40:35;94317.38;;;20.61;36.04
62697;BME280;48761;42.680;23.312;2023-04-24T10:43:05;94309.56;;;20.66;36.05
62697;BME280;48761;42.680;23.312;2023-04-24T10:45:31;94317.00;;;20.49;36.23
62697;BME280;48761;42.680;23.312;2023-04-24T10:47:58;94307.84;;;19.88;38.27
62697;BME280;48761;42.680;23.312;2023-04-24T10:50:28;94291.13;;;19.69;38.90
62697;BME280;48761;42.680;23.312;2023-04-24T10:53:05;94294.28;;;19.49;39.31
62697;BME280;48761;42.680;23.312;2023-04-24T10:55:45;94287.72;;;19.99;39.04
62697;BME280;48761;42.680;23.312;2023-04-24T10:58:12;94297.19;;;19.71;38.58
62697;BME280;48761;42.680;23.312;2023-04-24T11:00:39;94294.44;;;19.79;38.26
62697;BME280;48761;42.680;23.312;2023-04-24T11:03:23;94297.00;;;19.41;38.90
62697;BME280;48761;42.680;23.312;2023-04-24T11:06:02;94310.47;;;19.41;39.70
62697;BME280;48761;42.680;23.312;2023-04-24T11:08:31;94292.09;;;19.44;39.62
62697;BME280;48761;42.680;23.312;2023-04-24T11:11:15;94285.19;;;19.42;40.04
62697;BME280;48761;42.680;23.312;2023-04-24T11:16:33;94270.00;;;19.09;40.23
62697;BME280;48761;42.680;23.312;2023-04-24T11:21:41;94308.22;;;19.21;40.64
62697;BME280;48761;42.680;23.312;2023-04-24T11:26:59;94326.22;;;18.38;46.22
62697;BME280;48761;42.680;23.312;2023-04-24T11:30:03;94339.63;;;18.13;52.17
62697;BME280;48761;42.680;23.312;2023-04-24T11:34:57;94332.22;;;18.82;55.53
62697;BME280;48761;42.680;23.312;2023-04-24T11:37:27;94336.88;;;18.97;52.09
62697;BME280;48761;42.680;23.312;2023-04-24T11:39:57;94308.00;;;18.74;49.83
62697;BME280;48761;42.680;23.312;2023-04-24T11:42:24;94319.78;;;18.64;48.11
62697;BME280;48761;42.680;23.312;2023-04-24T11:44:52;94294.59;;;18.48;47.68
62697;BME280;48761;42.680;23.312;2023-04-24T11:47:18;94312.72;;;18.63;48.41
62697;BME280;48761;42.680;23.312;2023-04-24T11:49:44;94299.31;;;18.55;46.08
62697;BME280;48761;42.680;23.312;2023-04-24T11:52:10;94299.75;;;18.75;46.08
62697;BME280;48761;42.680;23.312;2023-04-24T11:54:36;94306.91;;;19.00;46.48
62697;BME280;48761;42.680;23.312;2023-04-24T11:57:06;94307.66;;;18.85;46.48
62697;BME280;48761;42.680;23.312;2023-04-24T11:59:36;94265.91;;;18.81;46.66
62697;BME280;48761;42.680;23.312;2023-04-24T12:02:02;94280.50;;;19.03;45.52
62697;BME280;48761;42.680;23.312;2023-04-24T12:04:38;94289.47;;;18.87;45.46
62697;BME280;48761;42.680;23.312;2023-04-24T12:07:05;94282.03;;;18.98;45.03
62697;BME280;48761;42.680;23.312;2023-04-24T12:09:56;94276.97;;;18.95;43.54
62697;BME280;48761;42.680;23.312;2023-04-24T12:12:27;94269.91;;;18.93;43.34
62697;BME280;48761;42.680;23.312;2023-04-24T12:14:57;94247.34;;;18.95;43.07
62697;BME280;48761;42.680;23.312;2023-04-24T12:17:29;94272.53;;;19.19;42.87
62697;BME280;48761;42.680;23.312;2023-04-24T12:20:03;94281.91;;;19.31;43.73
62697;BME280;48761;42.680;23.312;2023-04-24T12:22:49;94265.47;;;19.18;43.91
62697;BME280;48761;42.680;23.312;2023-04-24T12:25:18;94266.97;;;19.52;43.47
62697;BME280;48761;42.680;23.312;2023-04-24T12:27:45;94258.78;;;19.69;42.12
62697;BME280;48761;42.680;23.312;2023-04-24T12:30:13;94256.25;;;19.67;42.35
62697;BME280;48761;42.680;23.312;2023-04-24T12:32:44;94221.75;;;19.63;40.88
62697;BME280;48761;42.680;23.312;2023-04-24T12:35:11;94218.94;;;19.79;41.09
62697;BME280;48761;42.680;23.312;2023-04-24T12:37:37;94225.75;;;19.67;41.49
62697;BME280;48761;42.680;23.312;2023-04-24T12:40:11;94227.78;;;19.88;41.12
62697;BME280;48761;42.680;23.312;2023-04-24T12:42:48;94218.84;;;19.88;40.74
62697;BME280;48761;42.680;23.312;2023-04-24T12:45:16;94228.63;;;19.89;39.77
62697;BME280;48761;42.680;23.312;2023-04-24T12:47:43;94211.97;;;19.38;40.25
62697;BME280;48761;42.680;23.312;2023-04-24T12:50:11;94217.13;;;19.48;40.41
62697;BME280;48761;42.680;23.312;2023-04-24T12:52:38;94198.63;;;19.45;40.80
62697;BME280;48761;42.680;23.312;2023-04-24T12:55:04;94192.50;;;19.27;41.83
62697;BME280;48761;42.680;23.312;2023-04-24T12:57:31;94192.41;;;18.80;42.92
62697;BME280;48761;42.680;23.312;2023-04-24T12:59:58;94161.22;;;18.54;43.75